Time,TemperatureF,DewpointF,PressureIn,WindDirection,WindDirectionDegrees,WindSpeedMPH,WindSpeedGustMPH,Humidity,HourlyPrecipIn,Conditions,Clouds,dailyrainin,SolarRadiationWatts/m^2,SoftwareType,DateUTC
2013-10-13 00:00:00,43.0,43.0,-100.00,ENE,73,1.0,3.0,100,-99.99,,,0.00,0.000000,,2013-10-13 07:00:00,
2013-10-13 00:42:00,43.0,43.0,-100.00,ENE,73,1.0,3.0,100,-99.99,,,0.00,0.000000,,2013-10-13 07:42:00,
2013-10-13 00:52:00,43.0,43.0,-100.00,ENE,73,1.0,3.0,100,-99.99,,,0.00,0.000000,,2013-10-13 07:52:00,
2013-10-13 01:00:00,43.0,43.0,-100.00,ENE,65,2.0,3.0,100,-99.99,,,0.00,0.000000,,2013-10-13 08:00:00,
2013-10-13 01:42:00,43.0,43.0,-100.00,ENE,65,2.0,3.0,100,-99.99,,,0.00,0.000000,,2013-10-13 08:42:00,
2013-10-13 01:52:00,43.0,43.0,-100.00,ENE,65,2.0,3.0,100,-99.99,,,0.00,0.000000,,2013-10-13 08:52:00,
2013-10-13 02:00:00,43.0,43.0,-100.00,ENE,75,1.0,2.0,100,-99.99,,,0.00,0.000000,,2013-10-13 09:00:00,
2013-10-13 02:53:00,43.0,43.0,-100.00,ENE,75,1.0,2.0,100,-99.99,,,0.00,0.000000,,2013-10-13 09:53:00,
2013-10-13 03:00:00,43.0,43.0,-100.00,East,85,1.0,2.0,100,-99.99,,,0.00,0.000000,,2013-10-13 10:00:00,
2013-10-13 03:43:00,43.0,43.0,-100.00,East,85,1.0,2.0,100,-99.99,,,0.00,0.000000,,2013-10-13 10:43:00,
2013-10-13 03:53:00,43.0,43.0,-100.00,East,85,1.0,2.0,100,-99.99,,,0.00,0.000000,,2013-10-13 10:53:00,
2013-10-13 04:00:00,45.0,45.0,-100.00,ENE,63,2.0,4.0,100,-99.99,,,0.00,0.000000,,2013-10-13 11:00:00,
2013-10-13 04:42:00,45.0,45.0,-100.00,ENE,63,2.0,4.0,100,-99.99,,,0.00,0.000000,,2013-10-13 11:42:00,
2013-10-13 04:52:00,45.0,45.0,-100.00,ENE,63,2.0,4.0,100,-99.99,,,0.00,0.000000,,2013-10-13 11:52:00,
2013-10-13 05:00:00,43.0,43.0,-100.00,ENE,67,2.0,4.0,100,-99.99,,,0.00,0.000000,,2013-10-13 12:00:00,
2013-10-13 05:42:00,43.0,43.0,-100.00,ENE,67,2.0,4.0,100,-99.99,,,0.00,0.000000,,2013-10-13 12:42:00,
2013-10-13 05:52:00,43.0,43.0,-100.00,ENE,67,2.0,4.0,100,-99.99,,,0.00,0.000000,,2013-10-13 12:52:00,
2013-10-13 06:00:00,44.0,44.0,-100.00,ENE,76,2.0,5.0,100,-99.99,,,0.00,0.000000,,2013-10-13 13:00:00,
2013-10-13 06:52:00,44.0,44.0,-100.00,ENE,76,2.0,5.0,100,-99.99,,,0.00,0.000000,,2013-10-13 13:52:00,
2013-10-13 07:00:00,44.0,44.0,-100.00,East,79,3.0,6.0,100,-99.99,,,0.00,0.000000,,2013-10-13 14:00:00,
2013-10-13 07:42:00,44.0,44.0,-100.00,East,79,3.0,6.0,100,-99.99,,,0.00,0.000000,,2013-10-13 14:42:00,
2013-10-13 07:52:00,44.0,44.0,-100.00,East,79,3.0,6.0,100,-99.99,,,0.00,0.000000,,2013-10-13 14:52:00,
2013-10-13 08:00:00,44.0,44.0,-100.00,ENE,75,2.0,4.0,100,-99.99,,,0.00,37.419998,,2013-10-13 15:00:00,
2013-10-13 08:43:00,44.0,44.0,-100.00,ENE,75,2.0,4.0,100,-99.99,,,0.00,37.419998,,2013-10-13 15:43:00,
2013-10-13 08:54:00,44.0,44.0,-100.00,ENE,75,2.0,4.0,100,-99.99,,,0.00,37.419998,,2013-10-13 15:54:00,
2013-10-13 09:00:00,48.0,48.0,-100.00,ENE,71,4.0,7.0,100,-99.99,,,0.00,226.630005,,2013-10-13 16:00:00,
2013-10-13 09:42:00,48.0,48.0,-100.00,ENE,71,4.0,7.0,100,-99.99,,,0.00,226.630005,,2013-10-13 16:42:00,
2013-10-13 09:54:00,48.0,48.0,-100.00,ENE,71,4.0,7.0,100,-99.99,,,0.00,226.630005,,2013-10-13 16:54:00,
2013-10-13 10:00:00,50.0,49.0,-100.00,NE,35,4.0,9.0,95,-99.99,,,0.00,385.730011,,2013-10-13 17:00:00,
2013-10-13 10:43:00,50.0,49.0,-100.00,NE,35,4.0,9.0,95,-99.99,,,0.00,385.730011,,2013-10-13 17:43:00,
2013-10-13 10:52:00,50.0,49.0,-100.00,NE,35,4.0,9.0,95,-99.99,,,0.00,385.730011,,2013-10-13 17:52:00,
2013-10-13 11:00:00,55.0,50.0,-100.00,NE,55,4.0,11.0,83,-99.99,,,0.00,531.590027,,2013-10-13 18:00:00,
2013-10-13 11:42:00,55.0,50.0,-100.00,NE,55,4.0,11.0,83,-99.99,,,0.00,531.590027,,2013-10-13 18:42:00,
2013-10-13 11:52:00,55.0,50.0,-100.00,NE,55,4.0,11.0,83,-99.99,,,0.00,531.590027,,2013-10-13 18:52:00,
2013-10-13 12:00:00,58.0,48.0,-100.00,NE,41,5.0,12.0,69,-99.99,,,0.00,633.280029,,2013-10-13 19:00:00,
2013-10-13 12:52:00,58.0,48.0,-100.00,NE,41,5.0,12.0,69,-99.99,,,0.00,633.280029,,2013-10-13 19:52:00,
2013-10-13 13:00:00,56.0,49.0,-100.00,North,352,6.0,13.0,76,-99.99,,,0.00,676.049988,,2013-10-13 20:00:00,
2013-10-13 13:43:00,56.0,49.0,-100.00,North,352,6.0,13.0,76,-99.99,,,0.00,676.049988,,2013-10-13 20:43:00,
2013-10-13 13:52:00,56.0,49.0,-100.00,North,352,6.0,13.0,76,-99.99,,,0.00,676.049988,,2013-10-13 20:52:00,
2013-10-13 14:00:00,57.0,48.0,-100.00,NNW,347,9.0,18.0,72,-99.99,,,0.00,658.849976,,2013-10-13 21:00:00,
2013-10-13 14:44:00,57.0,48.0,-100.00,NNW,347,9.0,18.0,72,-99.99,,,0.00,658.849976,,2013-10-13 21:44:00,
2013-10-13 14:55:00,57.0,48.0,-100.00,NNW,347,9.0,18.0,72,-99.99,,,0.00,658.849976,,2013-10-13 21:55:00,
2013-10-13 15:00:00,57.0,50.0,-100.00,NNW,347,10.0,18.0,77,-99.99,,,0.00,580.289978,,2013-10-13 22:00:00,
2013-10-13 15:43:00,57.0,50.0,-100.00,NNW,347,10.0,18.0,77,-99.99,,,0.00,580.289978,,2013-10-13 22:43:00,
2013-10-13 15:53:00,57.0,50.0,-100.00,NNW,347,10.0,18.0,77,-99.99,,,0.00,580.289978,,2013-10-13 22:53:00,
2013-10-13 16:00:00,58.0,51.0,-100.00,North,355,9.0,19.0,80,-99.99,,,0.00,454.070007,,2013-10-13 23:00:00,
2013-10-13 16:42:00,58.0,51.0,-100.00,North,355,9.0,19.0,80,-99.99,,,0.00,454.070007,,2013-10-13 23:42:00,
2013-10-13 16:52:00,58.0,51.0,-100.00,North,355,9.0,19.0,80,-99.99,,,0.00,454.070007,,2013-10-13 23:52:00,
2013-10-13 17:00:00,57.0,51.0,-100.00,North,352,9.0,17.0,81,-99.99,,,0.00,284.619995,,2013-10-14 00:00:00,
2013-10-13 17:42:00,57.0,51.0,-100.00,North,352,9.0,17.0,81,-99.99,,,0.00,284.619995,,2013-10-14 00:42:00,
2013-10-13 17:52:00,57.0,51.0,-100.00,North,352,9.0,17.0,81,-99.99,,,0.00,284.619995,,2013-10-14 00:52:00,
2013-10-13 18:00:00,55.0,51.0,-100.00,NNW,347,6.0,13.0,84,-99.99,,,0.00,103.900002,,2013-10-14 01:00:00,
2013-10-13 18:52:00,55.0,51.0,-100.00,NNW,347,6.0,13.0,84,-99.99,,,0.00,103.900002,,2013-10-14 01:52:00,
2013-10-13 19:00:00,54.0,50.0,-100.00,NNE,32,3.0,9.0,85,-99.99,,,0.00,0.930000,,2013-10-14 02:00:00,
2013-10-13 19:42:00,54.0,50.0,-100.00,NNE,32,3.0,9.0,85,-99.99,,,0.00,0.930000,,2013-10-14 02:42:00,
2013-10-13 19:52:00,54.0,50.0,-100.00,NNE,32,3.0,9.0,85,-99.99,,,0.00,0.930000,,2013-10-14 02:52:00,
2013-10-13 20:00:00,54.0,51.0,-100.00,NNE,12,4.0,10.0,88,-99.99,,,0.00,0.000000,,2013-10-14 03:00:00,
2013-10-13 20:44:00,54.0,51.0,-100.00,NNE,12,4.0,10.0,88,-99.99,,,0.00,0.000000,,2013-10-14 03:44:00,
2013-10-13 20:55:00,54.0,51.0,-100.00,NNE,12,4.0,10.0,88,-99.99,,,0.00,0.000000,,2013-10-14 03:55:00,
2013-10-13 21:00:00,53.0,50.0,-100.00,NNE,27,2.0,5.0,90,-99.99,,,0.00,0.000000,,2013-10-14 04:00:00,
2013-10-13 21:43:00,53.0,50.0,-100.00,NNE,27,2.0,5.0,90,-99.99,,,0.00,0.000000,,2013-10-14 04:43:00,
2013-10-13 21:54:00,53.0,50.0,-100.00,NNE,27,2.0,5.0,90,-99.99,,,0.00,0.000000,,2013-10-14 04:54:00,
2013-10-13 22:00:00,50.0,50.0,-100.00,NNE,19,1.0,3.0,97,-99.99,,,0.00,0.000000,,2013-10-14 05:00:00,
2013-10-13 22:43:00,50.0,50.0,-100.00,NNE,19,1.0,3.0,97,-99.99,,,0.00,0.000000,,2013-10-14 05:43:00,
2013-10-13 22:52:00,50.0,50.0,-100.00,NNE,19,1.0,3.0,97,-99.99,,,0.00,0.000000,,2013-10-14 05:52:00,
2013-10-13 23:00:00,49.0,49.0,-100.00,NE,54,2.0,3.0,100,-99.99,,,0.00,0.000000,,2013-10-14 06:00:00,
2013-10-13 23:42:00,49.0,49.0,-100.00,NE,54,2.0,3.0,100,-99.99,,,0.00,0.000000,,2013-10-14 06:42:00,
2013-10-13 23:52:00,49.0,49.0,-100.00,NE,54,2.0,3.0,100,-99.99,,,0.00,0.000000,,2013-10-14 06:52:00,